sensor_id;sensor_type;location;lat;lon;timestamp;pressure;altitude;pressure_sealevel;temperature;humidity
74334;BME280;62753;40.394;-80.022;2023-08-21T00:00:17;97673.88;;;33.97;24.65
74334;BME280;62753;40.394;-80.022;2023-08-21T00:02:43;97680.66;;;34.79;23.76
74334;BME280;62753;40.394;-80.022;2023-08-21T00:05:09;97683.72;;;34.25;23.67
74334;BME280;62753;40.394;-80.022;2023-08-21T00:07:34;97692.24;;;33.25;24.93
74334;BME280;62753;40.394;-80.022;2023-08-21T00:09:59;97691.59;;;33.90;24.28
74334;BME280;62753;40.394;-80.022;2023-08-21T00:12:25;97694.05;;;34.13;23.99
74334;BME280;62753;40.394;-80.022;2023-08-21T00:14:51;97697.30;;;33.62;24.44
74334;BME280;62753;40.394;-80.022;2023-08-21T00:17:16;97693.37;;;34.31;23.56
74334;BME280;62753;40.394;-80.022;2023-08-21T00:19:42;97692.59;;;34.02;23.64
74334;BME280;62753;40.394;-80.022;2023-08-21T00:22:07;97696.39;;;34.65;23.09
74334;BME280;62753;40.394;-80.022;2023-08-21T00:24:32;97697.50;;;34.82;23.12
74334;BME280;62753;40.394;-80.022;2023-08-21T00:26:57;97698.88;;;34.43;23.99
74334;BME280;62753;40.394;-80.022;2023-08-21T00:29:23;97704.59;;;33.86;23.97
74334;BME280;62753;40.394;-80.022;2023-08-21T00:31:48;97706.21;;;34.48;23.56
74334;BME280;62753;40.394;-80.022;2023-08-21T00:34:14;97709.00;;;35.07;22.83
74334;BME280;62753;40.394;-80.022;2023-08-21T00:36:38;97711.79;;;34.94;23.35
74334;BME280;62753;40.394;-80.022;2023-08-21T00:39:05;97715.21;;;35.43;22.95
74334;BME280;62753;40.394;-80.022;2023-08-21T00:41:29;97711.67;;;35.25;22.92
74334;BME280;62753;40.394;-80.022;2023-08-21T00:43:54;97711.51;;;34.59;23.23
74334;BME280;62753;40.394;-80.022;2023-08-21T00:46:20;97708.73;;;34.82;23.54
74334;BME280;62753;40.394;-80.022;2023-08-21T00:48:45;97703.33;;;35.01;23.13
74334;BME280;62753;40.394;-80.022;2023-08-21T00:51:11;97704.84;;;34.22;23.92
74334;BME280;62753;40.394;-80.022;2023-08-21T00:53:36;97710.66;;;33.71;24.32
74334;BME280;62753;40.394;-80.022;2023-08-21T00:56:01;97710.47;;;34.53;23.40
74334;BME280;62753;40.394;-80.022;2023-08-21T00:58:27;97706.16;;;34.44;23.83
74334;BME280;62753;40.394;-80.022;2023-08-21T01:00:53;97706.65;;;34.51;23.88
74334;BME280;62753;40.394;-80.022;2023-08-21T01:03:18;97714.61;;;33.12;24.82
74334;BME280;62753;40.394;-80.022;2023-08-21T01:05:44;97720.22;;;32.92;25.30
74334;BME280;62753;40.394;-80.022;2023-08-21T01:08:14;97718.22;;;33.54;25.06
74334;BME280;62753;40.394;-80.022;2023-08-21T01:10:42;97719.66;;;33.69;24.84
74334;BME280;62753;40.394;-80.022;2023-08-21T01:13:06;97720.81;;;33.09;25.60
74334;BME280;62753;40.394;-80.022;2023-08-21T01:15:26;97717.44;;;31.84;26.58
74334;BME280;62753;40.394;-80.022;2023-08-21T01:17:52;97725.24;;;32.94;25.77
74334;BME280;62753;40.394;-80.022;2023-08-21T01:20:18;97725.98;;;33.07;25.36
74334;BME280;62753;40.394;-80.022;2023-08-21T01:22:42;97721.68;;;32.64;26.09
74334;BME280;62753;40.394;-80.022;2023-08-21T01:25:08;97723.15;;;32.26;26.30
74334;BME280;62753;40.394;-80.022;2023-08-21T01:27:34;97732.39;;;32.87;25.73
74334;BME280;62753;40.394;-80.022;2023-08-21T01:29:59;97735.20;;;32.70;25.90
74334;BME280;62753;40.394;-80.022;2023-08-21T01:32:32;97733.14;;;32.55;26.37
74334;BME280;62753;40.394;-80.022;2023-08-21T01:34:51;97725.45;;;34.23;25.01
74334;BME280;62753;40.394;-80.022;2023-08-21T01:37:17;97730.13;;;33.26;24.91
74334;BME280;62753;40.394;-80.022;2023-08-21T01:39:42;97740.69;;;32.82;25.79
74334;BME280;62753;40.394;-80.022;2023-08-21T01:42:06;97741.89;;;32.39;26.31
74334;BME280;62753;40.394;-80.022;2023-08-21T01:44:32;97746.50;;;32.86;25.68
74334;BME280;62753;40.394;-80.022;2023-08-21T01:46:58;97748.67;;;32.19;26.39
74334;BME280;62753;40.394;-80.022;2023-08-21T01:49:23;97747.91;;;32.27;26.76
74334;BME280;62753;40.394;-80.022;2023-08-21T01:51:49;97744.63;;;32.87;25.85
74334;BME280;62753;40.394;-80.022;2023-08-21T01:54:14;97743.19;;;33.33;25.53
74334;BME280;62753;40.394;-80.022;2023-08-21T01:56:39;97746.07;;;32.65;26.06
74334;BME280;62753;40.394;-80.022;2023-08-21T01:59:05;97745.44;;;32.57;26.29
74334;BME280;62753;40.394;-80.022;2023-08-21T02:01:30;97741.19;;;32.57;26.36
74334;BME280;62753;40.394;-80.022;2023-08-21T02:03:56;97740.19;;;32.47;26.70
74334;BME280;62753;40.394;-80.022;2023-08-21T02:06:22;97751.02;;;32.79;26.42
74334;BME280;62753;40.394;-80.022;2023-08-21T02:08:46;97758.56;;;32.76;26.44
74334;BME280;62753;40.394;-80.022;2023-08-21T02:11:12;97761.74;;;33.57;25.58
74334;BME280;62753;40.394;-80.022;2023-08-21T02:13:37;97757.49;;;33.09;25.92
74334;BME280;62753;40.394;-80.022;2023-08-21T02:16:03;97749.97;;;33.27;25.58
74334;BME280;62753;40.394;-80.022;2023-08-21T02:18:28;97747.55;;;32.97;26.15
74334;BME280;62753;40.394;-80.022;2023-08-21T02:20:54;97750.04;;;33.65;25.50
74334;BME280;62753;40.394;-80.022;2023-08-21T02:23:19;97752.84;;;33.57;25.37
74334;BME280;62753;40.394;-80.022;2023-08-21T02:25:43;97751.86;;;33.63;25.49
74334;BME280;62753;40.394;-80.022;2023-08-21T02:28:10;97744.66;;;33.41;25.63
74334;BME280;62753;40.394;-80.022;2023-08-21T02:30:35;97735.28;;;33.33;25.98
74334;BME280;62753;40.394;-80.022;2023-08-21T02:33:01;97731.52;;;32.46;26.90
74334;BME280;62753;40.394;-80.022;2023-08-21T02:35:26;97736.50;;;32.74;26.35
74334;BME280;62753;40.394;-80.022;2023-08-21T02:37:51;97741.40;;;33.47;25.79
74334;BME280;62753;40.394;-80.022;2023-08-21T02:40:17;97741.80;;;32.63;26.45
74334;BME280;62753;40.394;-80.022;2023-08-21T02:42:43;97748.57;;;33.68;25.47
74334;BME280;62753;40.394;-80.022;2023-08-21T02:45:10;97754.36;;;32.64;26.54
74334;BME280;62753;40.394;-80.022;2023-08-21T02:47:36;97771.45;;;31.96;27.76
74334;BME280;62753;40.394;-80.022;2023-08-21T02:50:00;97779.89;;;32.10;27.53
74334;BME280;62753;40.394;-80.022;2023-08-21T02:52:25;97784.73;;;32.01;27.39
74334;BME280;62753;40.394;-80.022;2023-08-21T02:54:50;97785.91;;;31.69;27.74
74334;BME280;62753;40.394;-80.022;2023-08-21T02:57:16;97783.06;;;31.85;27.31
74334;BME280;62753;40.394;-80.022;2023-08-21T02:59:42;97780.56;;;32.33;27.34
74334;BME280;62753;40.394;-80.022;2023-08-21T03:02:07;97775.75;;;32.96;26.38
74334;BME280;62753;40.394;-80.022;2023-08-21T03:04:33;97769.95;;;33.47;26.20
74334;BME280;62753;40.394;-80.022;2023-08-21T03:06:58;97762.80;;;32.46;27.25
74334;BME280;62753;40.394;-80.022;2023-08-21T03:09:24;97766.05;;;32.87;26.69
74334;BME280;62753;40.394;-80.022;2023-08-21T03:11:49;97774.75;;;31.05;29.15
74334;BME280;62753;40.394;-80.022;2023-08-21T03:14:15;97777.76;;;31.70;28.28
74334;BME280;62753;40.394;-80.022;2023-08-21T03:16:40;97779.24;;;32.96;26.98
74334;BME280;62753;40.394;-80.022;2023-08-21T03:19:06;97793.04;;;32.33;27.48
74334;BME280;62753;40.394;-80.022;2023-08-21T03:21:32;97800.63;;;32.02;27.81
74334;BME280;62753;40.394;-80.022;2023-08-21T03:23:57;97798.08;;;32.09;28.02
74334;BME280;62753;40.394;-80.022;2023-08-21T03:26:22;97793.27;;;32.41;27.83
74334;BME280;62753;40.394;-80.022;2023-08-21T03:28:48;97785.68;;;32.77;26.97
74334;BME280;62753;40.394;-80.022;2023-08-21T03:31:12;97790.11;;;32.41;27.49
74334;BME280;62753;40.394;-80.022;2023-08-21T03:33:38;97781.45;;;32.63;26.95
74334;BME280;62753;40.394;-80.022;2023-08-21T03:36:04;97776.45;;;32.63;27.73
74334;BME280;62753;40.394;-80.022;2023-08-21T03:38:29;97774.17;;;32.47;27.86
74334;BME280;62753;40.394;-80.022;2023-08-21T03:40:55;97773.24;;;32.55;27.93
74334;BME280;62753;40.394;-80.022;2023-08-21T03:43:20;97767.80;;;33.16;27.15
74334;BME280;62753;40.394;-80.022;2023-08-21T03:45:45;97763.33;;;32.98;26.76
74334;BME280;62753;40.394;-80.022;2023-08-21T03:48:11;97764.69;;;32.67;27.59
74334;BME280;62753;40.394;-80.022;2023-08-21T03:50:36;97760.68;;;32.90;27.26
74334;BME280;62753;40.394;-80.022;2023-08-21T03:53:01;97758.14;;;32.74;28.14
74334;BME280;62753;40.394;-80.022;2023-08-21T03:55:27;97760.45;;;31.56;29.58
74334;BME280;62753;40.394;-80.022;2023-08-21T03:57:52;97758.74;;;31.44;29.15
74334;BME280;62753;40.394;-80.022;2023-08-21T04:00:18;97763.55;;;31.52;29.30
74334;BME280;62753;40.394;-80.022;2023-08-21T04:02:43;97762.35;;;32.51;28.22
74334;BME280;62753;40.394;-80.022;2023-08-21T04:05:09;97763.92;;;31.99;28.47
74334;BME280;62753;40.394;-80.022;2023-08-21T04:07:35;97769.53;;;32.12;28.57
74334;BME280;62753;40.394;-80.022;2023-08-21T04:10:01;97773.07;;;32.21;28.38
74334;BME280;62753;40.394;-80.022;2023-08-21T04:12:26;97776.15;;;30.75;30.08
74334;BME280;62753;40.394;-80.022;2023-08-21T04:14:51;97777.91;;;31.62;29.33
74334;BME280;62753;40.394;-80.022;2023-08-21T04:17:21;97772.06;;;30.91;30.12
74334;BME280;62753;40.394;-80.022;2023-08-21T04:19:42;97778.32;;;31.58;28.85
74334;BME280;62753;40.394;-80.022;2023-08-21T04:22:07;97779.93;;;31.15;29.68
74334;BME280;62753;40.394;-80.022;2023-08-21T04:24:33;97782.00;;;30.84;29.81
74334;BME280;62753;40.394;-80.022;2023-08-21T04:26:59;97781.29;;;29.88;31.16
74334;BME280;62753;40.394;-80.022;2023-08-21T04:29:24;97783.76;;;31.22;29.71
74334;BME280;62753;40.394;-80.022;2023-08-21T04:31:49;97783.99;;;31.50;28.86
74334;BME280;62753;40.394;-80.022;2023-08-21T04:34:15;97778.75;;;30.65;30.95
74334;BME280;62753;40.394;-80.022;2023-08-21T04:36:40;97776.71;;;30.51;30.92
74334;BME280;62753;40.394;-80.022;2023-08-21T04:39:05;97774.31;;;30.81;30.25
74334;BME280;62753;40.394;-80.022;2023-08-21T04:41:31;97773.92;;;30.58;30.76
74334;BME280;62753;40.394;-80.022;2023-08-21T04:43:56;97776.81;;;31.19;29.24
74334;BME280;62753;40.394;-80.022;2023-08-21T04:46:22;97773.65;;;30.73;30.02
74334;BME280;62753;40.394;-80.022;2023-08-21T04:48:48;97778.08;;;31.09;29.93
74334;BME280;62753;40.394;-80.022;2023-08-21T04:51:14;97782.90;;;31.84;29.20
74334;BME280;62753;40.394;-80.022;2023-08-21T04:53:39;97787.07;;;31.95;28.66
74334;BME280;62753;40.394;-80.022;2023-08-21T04:56:04;97787.12;;;31.39;29.41
74334;BME280;62753;40.394;-80.022;2023-08-21T04:58:29;97785.00;;;31.13;30.11
74334;BME280;62753;40.394;-80.022;2023-08-21T05:00:55;97786.49;;;31.38;29.31
74334;BME280;62753;40.394;-80.022;2023-08-21T05:03:23;97782.36;;;30.13;30.49
74334;BME280;62753;40.394;-80.022;2023-08-21T05:05:52;97783.17;;;30.73;30.18
74334;BME280;62753;40.394;-80.022;2023-08-21T05:08:11;97782.39;;;30.92;29.73
74334;BME280;62753;40.394;-80.022;2023-08-21T05:10:37;97785.23;;;30.65;30.27
74334;BME280;62753;40.394;-80.022;2023-08-21T05:13:04;97779.86;;;31.07;29.86
74334;BME280;62753;40.394;-80.022;2023-08-21T05:15:28;97780.38;;;31.09;29.33
74334;BME280;62753;40.394;-80.022;2023-08-21T05:17:54;97777.41;;;30.93;29.67
74334;BME280;62753;40.394;-80.022;2023-08-21T05:20:19;97778.40;;;31.88;28.97
74334;BME280;62753;40.394;-80.022;2023-08-21T05:22:44;97778.52;;;32.14;28.21
74334;BME280;62753;40.394;-80.022;2023-08-21T05:25:11;97776.12;;;31.95;28.37
74334;BME280;62753;40.394;-80.022;2023-08-21T05:27:36;97776.01;;;31.52;28.98
74334;BME280;62753;40.394;-80.022;2023-08-21T05:30:02;97774.48;;;32.56;28.43
74334;BME280;62753;40.394;-80.022;2023-08-21T05:32:26;97776.08;;;31.41;29.45
74334;BME280;62753;40.394;-80.022;2023-08-21T05:34:52;97765.88;;;30.41;31.69
74334;BME280;62753;40.394;-80.022;2023-08-21T05:37:17;97763.56;;;31.28;31.24
74334;BME280;62753;40.394;-80.022;2023-08-21T05:39:43;97760.63;;;30.27;32.57
74334;BME280;62753;40.394;-80.022;2023-08-21T05:42:08;97759.81;;;30.76;31.90
74334;BME280;62753;40.394;-80.022;2023-08-21T05:44:33;97760.49;;;29.32;33.50
74334;BME280;62753;40.394;-80.022;2023-08-21T05:46:59;97761.15;;;29.96;32.43
74334;BME280;62753;40.394;-80.022;2023-08-21T05:49:25;97762.27;;;29.82;32.04
74334;BME280;62753;40.394;-80.022;2023-08-21T05:51:50;97761.12;;;30.19;31.84
74334;BME280;62753;40.394;-80.022;2023-08-21T05:54:15;97763.38;;;30.90;31.45
74334;BME280;62753;40.394;-80.022;2023-08-21T05:56:41;97762.52;;;29.72;32.74
74334;BME280;62753;40.394;-80.022;2023-08-21T05:59:09;97763.40;;;31.29;30.17
74334;BME280;62753;40.394;-80.022;2023-08-21T06:01:31;97762.24;;;31.39;30.12
74334;BME280;62753;40.394;-80.022;2023-08-21T06:03:58;97760.75;;;30.85;31.01
74334;BME280;62753;40.394;-80.022;2023-08-21T06:06:23;97757.11;;;30.65;31.50
74334;BME280;62753;40.394;-80.022;2023-08-21T06:08:48;97755.83;;;29.82;31.98
74334;BME280;62753;40.394;-80.022;2023-08-21T06:11:14;97759.74;;;29.53;32.49
74334;BME280;62753;40.394;-80.022;2023-08-21T06:13:39;97755.32;;;29.70;32.33
74334;BME280;62753;40.394;-80.022;2023-08-21T06:16:04;97749.12;;;30.92;31.19
74334;BME280;62753;40.394;-80.022;2023-08-21T06:18:29;97746.00;;;30.81;31.39
74334;BME280;62753;40.394;-80.022;2023-08-21T06:20:55;97743.27;;;30.99;30.71
74334;BME280;62753;40.394;-80.022;2023-08-21T06:23:20;97733.78;;;31.05;30.74
74334;BME280;62753;40.394;-80.022;2023-08-21T06:25:47;97731.25;;;30.27;31.78
74334;BME280;62753;40.394;-80.022;2023-08-21T06:28:11;97737.35;;;29.73;32.16
74334;BME280;62753;40.394;-80.022;2023-08-21T06:30:36;97745.07;;;29.85;32.09
74334;BME280;62753;40.394;-80.022;2023-08-21T06:33:02;97751.37;;;30.16;31.36
74334;BME280;62753;40.394;-80.022;2023-08-21T06:35:27;97755.24;;;29.94;32.14
74334;BME280;62753;40.394;-80.022;2023-08-21T06:37:53;97750.40;;;29.41;32.11
74334;BME280;62753;40.394;-80.022;2023-08-21T06:40:18;97749.46;;;29.98;31.27
74334;BME280;62753;40.394;-80.022;2023-08-21T06:42:43;97749.42;;;29.78;31.76
74334;BME280;62753;40.394;-80.022;2023-08-21T06:45:09;97745.97;;;29.92;31.53
74334;BME280;62753;40.394;-80.022;2023-08-21T06:47:34;97743.75;;;29.59;31.68
74334;BME280;62753;40.394;-80.022;2023-08-21T06:49:59;97745.00;;;29.74;31.80
74334;BME280;62753;40.394;-80.022;2023-08-21T06:52:24;97745.62;;;30.00;31.18
74334;BME280;62753;40.394;-80.022;2023-08-21T06:54:50;97746.48;;;29.76;31.79
74334;BME280;62753;40.394;-80.022;2023-08-21T06:57:15;97741.89;;;29.16;32.05
74334;BME280;62753;40.394;-80.022;2023-08-21T06:59:40;97741.77;;;30.43;31.20
74334;BME280;62753;40.394;-80.022;2023-08-21T07:02:06;97742.95;;;29.70;31.60
74334;BME280;62753;40.394;-80.022;2023-08-21T07:04:31;97744.64;;;29.55;31.75
74334;BME280;62753;40.394;-80.022;2023-08-21T07:06:57;97746.57;;;29.36;32.34
74334;BME280;62753;40.394;-80.022;2023-08-21T07:09:22;97742.79;;;29.37;32.18
74334;BME280;62753;40.394;-80.022;2023-08-21T07:11:48;97738.24;;;30.25;31.31
74334;BME280;62753;40.394;-80.022;2023-08-21T07:14:13;97739.55;;;29.66;31.69
74334;BME280;62753;40.394;-80.022;2023-08-21T07:16:38;97742.31;;;30.78;30.45
74334;BME280;62753;40.394;-80.022;2023-08-21T07:19:03;97742.28;;;30.56;30.76
74334;BME280;62753;40.394;-80.022;2023-08-21T07:21:29;97739.36;;;30.67;30.58
74334;BME280;62753;40.394;-80.022;2023-08-21T07:23:55;97734.18;;;29.97;31.77
74334;BME280;62753;40.394;-80.022;2023-08-21T07:26:20;97732.26;;;30.45;32.25
74334;BME280;62753;40.394;-80.022;2023-08-21T07:28:45;97736.08;;;29.95;33.18
74334;BME280;62753;40.394;-80.022;2023-08-21T07:31:11;97738.38;;;29.60;34.26
74334;BME280;62753;40.394;-80.022;2023-08-21T07:33:37;97735.29;;;30.15;33.40
74334;BME280;62753;40.394;-80.022;2023-08-21T07:36:03;97737.08;;;30.28;33.42
74334;BME280;62753;40.394;-80.022;2023-08-21T07:38:27;97734.06;;;30.07;33.10
74334;BME280;62753;40.394;-80.022;2023-08-21T07:41:03;97734.92;;;30.19;32.99
74334;BME280;62753;40.394;-80.022;2023-08-21T07:43:18;97745.52;;;29.68;33.55
74334;BME280;62753;40.394;-80.022;2023-08-21T07:45:43;97751.28;;;29.02;33.99
74334;BME280;62753;40.394;-80.022;2023-08-21T07:48:08;97754.43;;;29.42;33.57
74334;BME280;62753;40.394;-80.022;2023-08-21T07:50:34;97758.86;;;29.91;32.58
74334;BME280;62753;40.394;-80.022;2023-08-21T07:53:00;97767.09;;;29.27;33.67
74334;BME280;62753;40.394;-80.022;2023-08-21T07:55:26;97760.77;;;29.41;33.50
74334;BME280;62753;40.394;-80.022;2023-08-21T07:57:51;97758.31;;;30.19;32.26
74334;BME280;62753;40.394;-80.022;2023-08-21T08:00:16;97757.10;;;30.46;31.17
74334;BME280;62753;40.394;-80.022;2023-08-21T08:02:41;97759.95;;;30.27;32.16
74334;BME280;62753;40.394;-80.022;2023-08-21T08:05:07;97761.81;;;29.81;31.94
74334;BME280;62753;40.394;-80.022;2023-08-21T08:07:31;97760.74;;;29.56;32.31
74334;BME280;62753;40.394;-80.022;2023-08-21T08:09:57;97757.17;;;30.42;31.59
74334;BME280;62753;40.394;-80.022;2023-08-21T08:12:22;97757.15;;;30.32;31.65
74334;BME280;62753;40.394;-80.022;2023-08-21T08:14:48;97759.80;;;31.32;30.63
74334;BME280;62753;40.394;-80.022;2023-08-21T08:17:14;97759.37;;;30.50;31.51
74334;BME280;62753;40.394;-80.022;2023-08-21T08:19:40;97769.49;;;29.59;32.95
74334;BME280;62753;40.394;-80.022;2023-08-21T08:22:05;97773.87;;;29.85;32.56
74334;BME280;62753;40.394;-80.022;2023-08-21T08:24:31;97771.58;;;29.73;32.83
74334;BME280;62753;40.394;-80.022;2023-08-21T08:26:56;97766.75;;;29.68;32.32
74334;BME280;62753;40.394;-80.022;2023-08-21T08:29:22;97770.26;;;30.18;32.64
74334;BME280;62753;40.394;-80.022;2023-08-21T08:31:47;97768.84;;;30.68;31.82
74334;BME280;62753;40.394;-80.022;2023-08-21T08:34:12;97783.45;;;30.08;32.28
74334;BME280;62753;40.394;-80.022;2023-08-21T08:36:38;97790.80;;;29.31;33.53
74334;BME280;62753;40.394;-80.022;2023-08-21T08:39:03;97782.05;;;29.54;33.04
74334;BME280;62753;40.394;-80.022;2023-08-21T08:41:33;97785.01;;;30.46;31.85
74334;BME280;62753;40.394;-80.022;2023-08-21T08:43:56;97796.10;;;29.15;33.40
74334;BME280;62753;40.394;-80.022;2023-08-21T08:46:19;97803.17;;;29.08;34.25
74334;BME280;62753;40.394;-80.022;2023-08-21T08:48:44;97806.06;;;29.53;33.30
74334;BME280;62753;40.394;-80.022;2023-08-21T08:51:10;97806.02;;;28.52;34.75
74334;BME280;62753;40.394;-80.022;2023-08-21T08:53:35;97811.18;;;28.86;34.74
74334;BME280;62753;40.394;-80.022;2023-08-21T08:56:00;97802.62;;;29.81;33.44
74334;BME280;62753;40.394;-80.022;2023-08-21T08:58:25;97792.72;;;30.46;32.59
74334;BME280;62753;40.394;-80.022;2023-08-21T09:00:51;97805.82;;;28.66;35.00
74334;BME280;62753;40.394;-80.022;2023-08-21T09:03:17;97808.52;;;28.75;34.54
74334;BME280;62753;40.394;-80.022;2023-08-21T09:05:43;97807.22;;;28.61;35.11
74334;BME280;62753;40.394;-80.022;2023-08-21T09:08:10;97805.61;;;28.73;34.70
74334;BME280;62753;40.394;-80.022;2023-08-21T09:10:34;97805.20;;;28.05;35.92
74334;BME280;62753;40.394;-80.022;2023-08-21T09:12:58;97804.07;;;30.00;33.13
74334;BME280;62753;40.394;-80.022;2023-08-21T09:15:28;97813.03;;;29.31;33.85
74334;BME280;62753;40.394;-80.022;2023-08-21T09:17:53;97817.41;;;27.81;36.54
74334;BME280;62753;40.394;-80.022;2023-08-21T09:20:15;97817.97;;;28.93;34.80
74334;BME280;62753;40.394;-80.022;2023-08-21T09:22:40;97817.64;;;29.31;34.17
74334;BME280;62753;40.394;-80.022;2023-08-21T09:25:07;97819.66;;;28.85;34.57
74334;BME280;62753;40.394;-80.022;2023-08-21T09:27:32;97818.30;;;29.63;33.98
74334;BME280;62753;40.394;-80.022;2023-08-21T09:29:57;97812.11;;;30.20;32.66
74334;BME280;62753;40.394;-80.022;2023-08-21T09:32:23;97814.48;;;28.42;34.78
74334;BME280;62753;40.394;-80.022;2023-08-21T09:34:48;97815.67;;;29.04;34.78
74334;BME280;62753;40.394;-80.022;2023-08-21T09:37:13;97813.31;;;28.95;34.85
74334;BME280;62753;40.394;-80.022;2023-08-21T09:39:40;97812.12;;;28.66;35.90
74334;BME280;62753;40.394;-80.022;2023-08-21T09:42:06;97812.37;;;29.17;34.84
74334;BME280;62753;40.394;-80.022;2023-08-21T09:44:35;97809.29;;;29.33;34.36
74334;BME280;62753;40.394;-80.022;2023-08-21T09:46:55;97803.87;;;30.66;32.48
74334;BME280;62753;40.394;-80.022;2023-08-21T09:49:22;97802.96;;;29.29;33.74
74334;BME280;62753;40.394;-80.022;2023-08-21T09:51:46;97797.60;;;30.13;33.18
74334;BME280;62753;40.394;-80.022;2023-08-21T09:54:12;97800.29;;;29.60;34.12
74334;BME280;62753;40.394;-80.022;2023-08-21T09:56:38;97801.80;;;28.48;35.47
74334;BME280;62753;40.394;-80.022;2023-08-21T09:59:02;97805.20;;;30.22;32.74
74334;BME280;62753;40.394;-80.022;2023-08-21T10:01:29;97808.97;;;29.96;33.48
74334;BME280;62753;40.394;-80.022;2023-08-21T10:03:54;97805.34;;;29.58;33.90
74334;BME280;62753;40.394;-80.022;2023-08-21T10:06:20;97799.55;;;28.83;34.93
74334;BME280;62753;40.394;-80.022;2023-08-21T10:08:47;97805.33;;;29.10;35.19
74334;BME280;62753;40.394;-80.022;2023-08-21T10:11:10;97807.10;;;29.42;34.42
74334;BME280;62753;40.394;-80.022;2023-08-21T10:13:37;97816.10;;;29.96;33.71
74334;BME280;62753;40.394;-80.022;2023-08-21T10:16:01;97818.93;;;28.83;35.06
74334;BME280;62753;40.394;-80.022;2023-08-21T10:18:31;97821.14;;;29.32;34.06
74334;BME280;62753;40.394;-80.022;2023-08-21T10:20:53;97824.33;;;28.56;35.44
74334;BME280;62753;40.394;-80.022;2023-08-21T10:23:26;97825.80;;;29.85;33.76
74334;BME280;62753;40.394;-80.022;2023-08-21T10:25:43;97826.15;;;28.75;34.92
74334;BME280;62753;40.394;-80.022;2023-08-21T10:28:09;97828.46;;;29.13;34.38
74334;BME280;62753;40.394;-80.022;2023-08-21T10:30:34;97836.26;;;28.88;34.86
74334;BME280;62753;40.394;-80.022;2023-08-21T10:33:00;97834.08;;;28.64;35.25
74334;BME280;62753;40.394;-80.022;2023-08-21T10:35:29;97835.63;;;28.86;35.17
74334;BME280;62753;40.394;-80.022;2023-08-21T10:38:05;97832.80;;;28.58;35.59
74334;BME280;62753;40.394;-80.022;2023-08-21T10:40:21;97832.90;;;28.01;37.08
74334;BME280;62753;40.394;-80.022;2023-08-21T10:42:41;97831.63;;;28.38;36.04
74334;BME280;62753;40.394;-80.022;2023-08-21T10:45:11;97830.62;;;29.14;34.92
74334;BME280;62753;40.394;-80.022;2023-08-21T10:47:33;97828.70;;;29.49;34.80
74334;BME280;62753;40.394;-80.022;2023-08-21T10:50:00;97829.62;;;29.47;34.17
74334;BME280;62753;40.394;-80.022;2023-08-21T10:52:25;97833.20;;;30.17;33.42
74334;BME280;62753;40.394;-80.022;2023-08-21T10:54:50;97837.93;;;28.66;35.67
74334;BME280;62753;40.394;-80.022;2023-08-21T10:57:16;97847.64;;;28.58;35.46
74334;BME280;62753;40.394;-80.022;2023-08-21T10:59:52;97853.52;;;28.10;36.59
74334;BME280;62753;40.394;-80.022;2023-08-21T11:02:07;97854.34;;;28.23;35.67
74334;BME280;62753;40.394;-80.022;2023-08-21T11:04:39;97859.53;;;27.56;37.03
74334;BME280;62753;40.394;-80.022;2023-08-21T11:06:58;97857.46;;;28.66;35.63
74334;BME280;62753;40.394;-80.022;2023-08-21T11:09:24;97857.61;;;28.48;35.41
74334;BME280;62753;40.394;-80.022;2023-08-21T11:11:49;97857.06;;;28.96;35.77
74334;BME280;62753;40.394;-80.022;2023-08-21T11:14:15;97863.01;;;28.49;35.99
74334;BME280;62753;40.394;-80.022;2023-08-21T11:16:41;97864.62;;;28.41;35.41
74334;BME280;62753;40.394;-80.022;2023-08-21T11:19:08;97863.46;;;29.71;34.12
74334;BME280;62753;40.394;-80.022;2023-08-21T11:21:33;97863.24;;;30.41;33.21
74334;BME280;62753;40.394;-80.022;2023-08-21T11:23:58;97864.98;;;29.69;34.14
74334;BME280;62753;40.394;-80.022;2023-08-21T11:26:25;97867.01;;;30.07;33.73
74334;BME280;62753;40.394;-80.022;2023-08-21T11:28:48;97870.32;;;29.71;33.88
74334;BME280;62753;40.394;-80.022;2023-08-21T11:31:15;97867.32;;;29.60;34.64
74334;BME280;62753;40.394;-80.022;2023-08-21T11:33:40;97867.91;;;29.27;34.95
74334;BME280;62753;40.394;-80.022;2023-08-21T11:36:06;97865.77;;;29.33;35.24
74334;BME280;62753;40.394;-80.022;2023-08-21T11:38:31;97867.07;;;29.72;34.19
74334;BME280;62753;40.394;-80.022;2023-08-21T11:40:57;97862.19;;;30.26;33.35
74334;BME280;62753;40.394;-80.022;2023-08-21T11:43:23;97857.06;;;31.26;32.08
74334;BME280;62753;40.394;-80.022;2023-08-21T11:45:47;97861.02;;;30.41;32.94
74334;BME280;62753;40.394;-80.022;2023-08-21T11:48:12;97860.91;;;30.21;33.19
74334;BME280;62753;40.394;-80.022;2023-08-21T11:50:38;97858.05;;;31.16;31.88
74334;BME280;62753;40.394;-80.022;2023-08-21T11:53:04;97865.18;;;29.93;33.59
74334;BME280;62753;40.394;-80.022;2023-08-21T11:55:30;97870.07;;;30.32;32.86
74334;BME280;62753;40.394;-80.022;2023-08-21T11:57:54;97869.89;;;29.90;33.28
74334;BME280;62753;40.394;-80.022;2023-08-21T12:02:55;97865.75;;;31.75;31.43
74334;BME280;62753;40.394;-80.022;2023-08-21T12:05:15;97867.12;;;29.91;33.66
74334;BME280;62753;40.394;-80.022;2023-08-21T12:07:36;97868.31;;;31.17;32.38
74334;BME280;62753;40.394;-80.022;2023-08-21T12:10:01;97868.07;;;32.34;30.95
74334;BME280;62753;40.394;-80.022;2023-08-21T12:12:26;97869.21;;;32.53;30.64
74334;BME280;62753;40.394;-80.022;2023-08-21T12:14:51;97871.65;;;32.67;30.20
74334;BME280;62753;40.394;-80.022;2023-08-21T12:17:16;97874.38;;;31.30;32.05
74334;BME280;62753;40.394;-80.022;2023-08-21T12:19:41;97879.11;;;31.90;31.67
74334;BME280;62753;40.394;-80.022;2023-08-21T12:22:08;97885.36;;;31.81;31.69
74334;BME280;62753;40.394;-80.022;2023-08-21T12:24:33;97890.02;;;30.94;32.89
74334;BME280;62753;40.394;-80.022;2023-08-21T12:26:59;97883.05;;;30.68;33.34
74334;BME280;62753;40.394;-80.022;2023-08-21T12:29:24;97879.79;;;31.30;31.60
74334;BME280;62753;40.394;-80.022;2023-08-21T12:31:50;97884.61;;;30.81;31.73